Time;durP1;ratioP1;P1;durP2;ratioP2;P2;SDS_P1;SDS_P2;PMS_P1;PMS_P2;Temp;Humidity;BMP_temperature;BMP_pressure;BME280_temperature;BME280_humidity;BME280_pressure;Samples;Min_cycle;Max_cycle;Signal;HPM_P1;HPM_P2
2022/03/15 00:00:50;;;;;;;18.27;8.50;;;;;;;;;;5071177;28;20059;-82
2022/03/15 00:03:15;;;;;;;18.88;8.02;;;;;;;;;;5082379;28;20029;-82
2022/03/15 00:05:41;;;;;;;17.15;7.68;;;;;;;;;;5074343;28;20473;-82
2022/03/15 00:08:07;;;;;;;15.00;7.95;;;;;;;;;;5085977;28;20025;-83
2022/03/15 00:10:32;;;;;;;16.42;7.70;;;;;;;;;;5081020;28;20020;-81
2022/03/15 00:12:58;;;;;;;20.23;8.65;;;;;;;;;;5072900;28;20037;-82
2022/03/15 00:15:24;;;;;;;20.63;7.93;;;;;;;;;;5075182;28;20093;-81
2022/03/15 00:17:53;;;;;;;17.67;7.90;;;;;;;;;;5084349;28;20021;-83
2022/03/15 00:20:22;;;;;;;18.02;9.38;;;;;;;;;;5077483;28;20017;-80
2022/03/15 00:22:48;;;;;;;16.95;8.52;;;;;;;;;;5064062;28;20020;-81
2022/03/15 00:25:16;;;;;;;19.45;9.57;;;;;;;;;;5077446;28;20430;-83
2022/03/15 00:27:42;;;;;;;18.63;8.70;;;;;;;;;;5085616;28;20009;-81
2022/03/15 00:30:07;;;;;;;16.92;7.55;;;;;;;;;;5068750;28;20036;-82
2022/03/15 00:32:33;;;;;;;15.25;8.15;;;;;;;;;;5075135;28;20025;-83
2022/03/15 00:34:58;;;;;;;27.52;11.10;;;;;;;;;;5066755;28;20024;-82
2022/03/15 00:37:24;;;;;;;31.90;11.70;;;;;;;;;;5078631;28;20013;-82
2022/03/15 00:39:50;;;;;;;26.13;10.82;;;;;;;;;;5088216;28;20017;-80
2022/03/15 00:42:16;;;;;;;26.23;10.68;;;;;;;;;;5086904;28;20032;-81
2022/03/15 00:44:41;;;;;;;26.33;11.38;;;;;;;;;;5072364;28;20040;-82
2022/03/15 00:47:06;;;;;;;28.13;11.88;;;;;;;;;;5071875;28;20494;-82
2022/03/15 00:49:32;;;;;;;26.15;11.13;;;;;;;;;;5075831;28;20021;-82
2022/03/15 00:51:57;;;;;;;23.15;10.13;;;;;;;;;;5060597;28;20020;-82
2022/03/15 00:54:23;;;;;;;26.27;9.65;;;;;;;;;;5071266;28;20090;-83
2022/03/15 00:56:48;;;;;;;23.63;9.85;;;;;;;;;;5069977;28;20564;-82
2022/03/15 00:59:15;;;;;;;19.63;8.90;;;;;;;;;;5085436;28;20078;-79
2022/03/15 01:01:40;;;;;;;16.77;8.07;;;;;;;;;;5071127;28;20096;-81
2022/03/15 01:04:06;;;;;;;18.73;9.00;;;;;;;;;;5076356;28;20078;-80
2022/03/15 01:06:31;;;;;;;21.33;9.20;;;;;;;;;;5067511;28;20031;-81
2022/03/15 01:08:56;;;;;;;25.73;11.18;;;;;;;;;;5070244;28;20104;-80
2022/03/15 01:11:21;;;;;;;17.40;8.02;;;;;;;;;;5072480;28;20035;-79
2022/03/15 01:13:47;;;;;;;14.90;7.32;;;;;;;;;;5072962;28;20024;-80
2022/03/15 01:16:12;;;;;;;20.88;9.10;;;;;;;;;;5072238;28;20440;-80
2022/03/15 01:18:38;;;;;;;19.50;9.30;;;;;;;;;;5079179;28;20471;-80
2022/03/15 01:21:04;;;;;;;17.77;8.27;;;;;;;;;;5073586;28;20059;-80
2022/03/15 01:23:30;;;;;;;15.85;7.68;;;;;;;;;;5070039;28;20046;-80
2022/03/15 01:25:56;;;;;;;22.08;8.43;;;;;;;;;;5073176;28;20032;-80
2022/03/15 01:28:22;;;;;;;14.50;8.13;;;;;;;;;;5069544;28;20032;-81
2022/03/15 01:30:47;;;;;;;16.58;7.38;;;;;;;;;;5059829;28;20029;-81
2022/03/15 01:33:12;;;;;;;15.32;7.50;;;;;;;;;;5067478;28;20380;-80
2022/03/15 01:35:38;;;;;;;15.70;8.23;;;;;;;;;;5059366;28;20032;-80
2022/03/15 01:38:03;;;;;;;16.25;7.85;;;;;;;;;;5063034;28;20024;-80
2022/03/15 01:40:28;;;;;;;15.82;6.60;;;;;;;;;;5063592;28;20021;-79
2022/03/15 01:42:53;;;;;;;16.90;7.60;;;;;;;;;;5074675;28;20460;-80
2022/03/15 01:45:19;;;;;;;14.13;7.32;;;;;;;;;;5070820;28;20021;-80
2022/03/15 01:47:44;;;;;;;14.40;7.05;;;;;;;;;;5068058;28;20024;-80
2022/03/15 01:50:09;;;;;;;14.73;6.72;;;;;;;;;;5064682;28;20082;-82
2022/03/15 01:52:35;;;;;;;17.00;7.45;;;;;;;;;;5069951;28;20045;-81
2022/03/15 01:55:00;;;;;;;15.00;6.93;;;;;;;;;;5066971;28;20017;-81
2022/03/15 01:57:25;;;;;;;14.63;7.50;;;;;;;;;;5078761;28;20009;-81
2022/03/15 01:59:50;;;;;;;12.70;6.50;;;;;;;;;;5068174;28;20017;-79
2022/03/15 02:02:16;;;;;;;15.15;7.97;;;;;;;;;;5071692;28;20025;-80
2022/03/15 02:04:41;;;;;;;14.18;6.63;;;;;;;;;;5067405;28;20507;-80
2022/03/15 02:07:11;;;;;;;13.52;7.15;;;;;;;;;;5069426;28;20387;-80
2022/03/15 02:09:36;;;;;;;16.95;7.07;;;;;;;;;;5060980;28;20025;-80
2022/03/15 02:12:01;;;;;;;15.75;6.53;;;;;;;;;;5066508;28;20484;-81
2022/03/15 02:14:27;;;;;;;13.27;6.85;;;;;;;;;;5075994;28;20016;-80
2022/03/15 02:16:52;;;;;;;19.60;7.93;;;;;;;;;;5069927;28;20021;-82
2022/03/15 02:19:18;;;;;;;14.48;7.22;;;;;;;;;;5064727;28;20095;-81
2022/03/15 02:21:43;;;;;;;14.85;7.00;;;;;;;;;;5074032;28;20012;-82
2022/03/15 02:24:08;;;;;;;13.73;6.97;;;;;;;;;;5075718;28;20025;-80
2022/03/15 02:26:33;;;;;;;15.40;7.68;;;;;;;;;;5063106;28;20028;-81
2022/03/15 02:28:59;;;;;;;15.43;7.10;;;;;;;;;;5073329;28;20021;-81
2022/03/15 02:31:24;;;;;;;18.95;7.47;;;;;;;;;;5069231;28;20021;-80
2022/03/15 02:33:50;;;;;;;11.50;6.43;;;;;;;;;;5066894;28;20024;-80
2022/03/15 02:36:16;;;;;;;16.10;8.02;;;;;;;;;;5065441;28;20020;-80
2022/03/15 02:38:41;;;;;;;17.23;7.82;;;;;;;;;;5066019;28;20017;-80
2022/03/15 02:41:07;;;;;;;14.65;6.97;;;;;;;;;;5070711;28;20020;-83
2022/03/15 02:43:32;;;;;;;13.43;7.05;;;;;;;;;;5065087;28;20017;-81
2022/03/15 02:45:57;;;;;;;18.33;7.00;;;;;;;;;;5075623;28;20111;-81
2022/03/15 02:48:22;;;;;;;15.63;7.53;;;;;;;;;;5078507;28;20047;-83
2022/03/15 02:50:48;;;;;;;13.68;6.97;;;;;;;;;;5084775;28;20489;-81
2022/03/15 02:53:14;;;;;;;15.50;7.82;;;;;;;;;;5080140;28;20024;-83
2022/03/15 02:55:39;;;;;;;14.32;7.40;;;;;;;;;;5091024;28;20028;-83
2022/03/15 02:58:04;;;;;;;11.35;6.45;;;;;;;;;;5094707;28;20028;-83
2022/03/15 03:00:29;;;;;;;20.55;7.47;;;;;;;;;;5082763;28;20029;-80
2022/03/15 03:02:55;;;;;;;12.55;6.90;;;;;;;;;;5068183;28;20503;-81
2022/03/15 03:05:20;;;;;;;14.80;6.78;;;;;;;;;;5078060;28;20012;-81
2022/03/15 03:07:46;;;;;;;14.60;7.05;;;;;;;;;;5068534;28;20032;-79
2022/03/15 03:10:12;;;;;;;12.32;6.43;;;;;;;;;;5065670;28;20295;-79
2022/03/15 03:12:41;;;;;;;13.63;6.22;;;;;;;;;;5064169;28;20044;-79
2022/03/15 03:15:09;;;;;;;17.25;7.00;;;;;;;;;;5075925;28;20032;-80
2022/03/15 03:17:35;;;;;;;14.43;6.63;;;;;;;;;;5062946;28;20025;-78
2022/03/15 03:20:00;;;;;;;14.95;6.95;;;;;;;;;;5067085;28;20046;-79
2022/03/15 03:22:25;;;;;;;14.45;7.40;;;;;;;;;;5066860;28;20104;-78
2022/03/15 03:24:50;;;;;;;12.10;6.03;;;;;;;;;;5073660;28;20399;-79
2022/03/15 03:27:15;;;;;;;16.30;6.97;;;;;;;;;;5075009;28;20032;-80
2022/03/15 03:29:41;;;;;;;11.10;7.28;;;;;;;;;;5059174;28;20013;-80
2022/03/15 03:32:07;;;;;;;12.65;7.03;;;;;;;;;;5056947;28;20025;-79
2022/03/15 03:34:32;;;;;;;14.68;7.28;;;;;;;;;;5059234;28;20035;-79
2022/03/15 03:36:57;;;;;;;12.90;7.10;;;;;;;;;;5075631;28;20031;-79
2022/03/15 03:39:22;;;;;;;15.55;6.85;;;;;;;;;;5068042;28;20433;-79
2022/03/15 03:41:47;;;;;;;15.68;6.60;;;;;;;;;;5064957;28;20036;-80
2022/03/15 03:44:13;;;;;;;10.05;5.85;;;;;;;;;;5067095;28;20555;-80
2022/03/15 03:46:38;;;;;;;15.55;6.82;;;;;;;;;;5075194;28;20035;-79
2022/03/15 03:49:31;;;;;;;12.02;6.30;;;;;;;;;;5058162;28;20020;-81
2022/03/15 03:51:57;;;;;;;14.85;6.93;;;;;;;;;;5064631;28;20028;-81
2022/03/15 03:54:23;;;;;;;11.43;5.75;;;;;;;;;;5067821;28;20560;-80
2022/03/15 03:56:50;;;;;;;13.05;6.28;;;;;;;;;;5065190;28;20021;-82
2022/03/15 03:59:16;;;;;;;12.38;5.88;;;;;;;;;;5070955;28;20016;-82
2022/03/15 04:01:42;;;;;;;13.82;6.30;;;;;;;;;;5070900;28;20512;-80
2022/03/15 04:04:07;;;;;;;13.68;6.05;;;;;;;;;;5069422;28;20036;-83
2022/03/15 04:06:33;;;;;;;13.25;6.75;;;;;;;;;;5060340;28;20020;-81
2022/03/15 04:08:59;;;;;;;13.68;6.35;;;;;;;;;;5067659;28;20025;-81
2022/03/15 04:11:24;;;;;;;12.60;6.78;;;;;;;;;;5066771;28;20081;-83
2022/03/15 04:13:49;;;;;;;10.98;6.32;;;;;;;;;;5069604;28;20115;-82
2022/03/15 04:16:15;;;;;;;13.75;6.13;;;;;;;;;;5081189;28;20027;-83
2022/03/15 04:18:41;;;;;;;14.18;6.28;;;;;;;;;;5063988;28;20013;-81
2022/03/15 04:21:06;;;;;;;12.70;6.15;;;;;;;;;;5068492;28;20017;-81
2022/03/15 04:23:31;;;;;;;10.73;5.88;;;;;;;;;;5060178;28;20043;-79
2022/03/15 04:25:57;;;;;;;11.40;6.50;;;;;;;;;;5072097;28;20387;-79
2022/03/15 04:28:22;;;;;;;12.73;6.60;;;;;;;;;;5083071;28;20027;-83
2022/03/15 04:30:47;;;;;;;14.93;6.15;;;;;;;;;;5077856;28;20040;-83
2022/03/15 04:33:12;;;;;;;18.58;6.28;;;;;;;;;;5081537;28;20077;-84
2022/03/15 04:35:38;;;;;;;14.88;6.88;;;;;;;;;;5066069;28;20044;-81
2022/03/15 04:38:03;;;;;;;14.52;6.30;;;;;;;;;;5060927;28;20066;-82
2022/03/15 04:40:28;;;;;;;9.98;5.40;;;;;;;;;;5051996;28;20043;-81
2022/03/15 04:42:54;;;;;;;11.70;5.88;;;;;;;;;;5065733;28;20405;-82
2022/03/15 04:45:20;;;;;;;14.27;5.78;;;;;;;;;;5076113;28;20028;-82
2022/03/15 04:47:46;;;;;;;10.85;5.45;;;;;;;;;;5058872;28;20112;-82
2022/03/15 04:50:11;;;;;;;10.88;5.85;;;;;;;;;;5061379;28;20044;-81
2022/03/15 04:52:36;;;;;;;12.43;5.00;;;;;;;;;;5069857;28;20035;-82
2022/03/15 04:55:03;;;;;;;12.43;5.70;;;;;;;;;;5064504;28;20025;-82
2022/03/15 04:57:28;;;;;;;10.15;5.65;;;;;;;;;;5069321;28;20036;-82
2022/03/15 04:59:53;;;;;;;10.70;5.80;;;;;;;;;;5078946;28;20021;-82
2022/03/15 05:02:18;;;;;;;11.00;6.03;;;;;;;;;;5076636;28;20096;-83
2022/03/15 05:04:43;;;;;;;9.85;5.72;;;;;;;;;;5073918;28;20033;-83
2022/03/15 05:07:09;;;;;;;10.18;5.40;;;;;;;;;;5075331;28;20031;-83
2022/03/15 05:09:34;;;;;;;12.98;5.90;;;;;;;;;;5080079;28;20017;-84
2022/03/15 05:11:59;;;;;;;11.13;5.72;;;;;;;;;;5071105;28;20108;-83
2022/03/15 05:14:27;;;;;;;9.68;5.15;;;;;;;;;;5069030;28;20032;-84
2022/03/15 05:16:52;;;;;;;10.35;5.47;;;;;;;;;;5073753;28;20024;-84
2022/03/15 05:19:17;;;;;;;9.02;5.20;;;;;;;;;;5085642;28;20000;-85
2022/03/15 05:21:43;;;;;;;10.90;5.68;;;;;;;;;;5090740;28;20025;-84
2022/03/15 05:24:08;;;;;;;9.48;5.50;;;;;;;;;;5087473;28;20020;-83
2022/03/15 05:26:34;;;;;;;10.77;5.57;;;;;;;;;;5077146;28;20484;-84
2022/03/15 05:28:59;;;;;;;10.40;5.82;;;;;;;;;;5071189;28;20072;-83
2022/03/15 05:31:26;;;;;;;10.13;5.65;;;;;;;;;;5088341;28;20016;-84
2022/03/15 05:33:51;;;;;;;12.27;5.95;;;;;;;;;;5070536;28;20056;-82
2022/03/15 05:36:17;;;;;;;11.95;5.70;;;;;;;;;;5075084;28;20024;-83
2022/03/15 05:38:42;;;;;;;10.52;4.72;;;;;;;;;;5069804;28;20016;-83
2022/03/15 05:41:08;;;;;;;11.32;5.35;;;;;;;;;;5088254;28;20033;-83
2022/03/15 05:43:33;;;;;;;10.82;5.00;;;;;;;;;;5059106;28;20566;-80
2022/03/15 05:45:58;;;;;;;11.60;5.93;;;;;;;;;;5064819;28;20053;-81
2022/03/15 05:48:24;;;;;;;11.15;5.32;;;;;;;;;;5063968;28;20021;-81
2022/03/15 05:50:49;;;;;;;14.32;6.00;;;;;;;;;;5070284;28;20020;-82
2022/03/15 05:53:14;;;;;;;9.73;4.88;;;;;;;;;;5073211;28;20021;-83
2022/03/15 05:55:40;;;;;;;13.30;5.28;;;;;;;;;;5084242;28;20083;-83
2022/03/15 05:58:06;;;;;;;12.20;5.60;;;;;;;;;;5086566;28;20375;-83
2022/03/15 06:00:34;;;;;;;8.90;5.28;;;;;;;;;;5083032;28;20075;-83
2022/03/15 06:03:02;;;;;;;10.38;5.75;;;;;;;;;;5075273;28;20017;-83
2022/03/15 06:05:27;;;;;;;13.50;5.63;;;;;;;;;;5081481;28;20024;-83
2022/03/15 06:07:53;;;;;;;10.40;5.68;;;;;;;;;;5086842;28;20019;-83
2022/03/15 06:10:20;;;;;;;13.63;5.70;;;;;;;;;;5072151;28;20032;-83
2022/03/15 06:12:46;;;;;;;11.65;5.30;;;;;;;;;;5079654;28;20009;-84
2022/03/15 06:15:11;;;;;;;12.48;5.50;;;;;;;;;;5091760;28;20107;-84
2022/03/15 06:17:47;;;;;;;10.70;6.28;;;;;;;;;;5078491;28;20032;-82
2022/03/15 06:20:14;;;;;;;15.02;6.88;;;;;;;;;;5074793;28;20136;-82
2022/03/15 06:22:40;;;;;;;11.88;5.45;;;;;;;;;;5066146;28;20085;-82
2022/03/15 06:25:05;;;;;;;12.55;5.25;;;;;;;;;;5076566;28;20520;-83
2022/03/15 06:27:30;;;;;;;9.60;5.72;;;;;;;;;;5087321;28;20020;-82
2022/03/15 06:29:56;;;;;;;10.05;5.13;;;;;;;;;;5067180;28;20507;-83
2022/03/15 06:32:21;;;;;;;10.52;5.60;;;;;;;;;;5078542;28;20013;-82
2022/03/15 06:34:47;;;;;;;10.82;5.05;;;;;;;;;;5074699;28;20563;-82
2022/03/15 06:37:15;;;;;;;13.35;5.30;;;;;;;;;;5071865;28;20043;-83
2022/03/15 06:39:40;;;;;;;10.55;5.32;;;;;;;;;;5063194;28;20032;-82
2022/03/15 06:42:11;;;;;;;10.85;5.30;;;;;;;;;;5087170;28;20032;-83
2022/03/15 06:44:36;;;;;;;9.70;5.55;;;;;;;;;;5083463;28;20032;-83
2022/03/15 06:47:02;;;;;;;9.88;4.50;;;;;;;;;;5090139;28;20033;-84
2022/03/15 06:49:27;;;;;;;9.57;5.07;;;;;;;;;;5081312;28;20020;-83
2022/03/15 06:51:53;;;;;;;8.88;4.80;;;;;;;;;;5074692;28;20009;-83
2022/03/15 06:54:18;;;;;;;8.50;4.45;;;;;;;;;;5087841;28;20021;-83
2022/03/15 06:56:43;;;;;;;9.25;5.07;;;;;;;;;;5073003;28;20031;-83
2022/03/15 06:59:08;;;;;;;11.02;5.22;;;;;;;;;;5078589;28;20069;-83
2022/03/15 07:01:34;;;;;;;9.25;5.03;;;;;;;;;;5067860;28;20040;-82
2022/03/15 07:03:59;;;;;;;9.23;4.35;;;;;;;;;;5075284;28;20107;-83
2022/03/15 07:06:24;;;;;;;8.80;4.22;;;;;;;;;;5079443;28;20047;-82
2022/03/15 07:08:50;;;;;;;18.10;5.65;;;;;;;;;;5084540;28;20103;-83
2022/03/15 07:11:15;;;;;;;11.70;5.30;;;;;;;;;;5082327;28;20020;-83
2022/03/15 07:13:40;;;;;;;11.82;5.20;;;;;;;;;;5088443;28;20013;-83
2022/03/15 07:16:05;;;;;;;10.82;5.78;;;;;;;;;;5092640;28;20013;-84
2022/03/15 07:18:31;;;;;;;9.25;5.28;;;;;;;;;;5095897;28;20020;-84
2022/03/15 07:20:56;;;;;;;11.60;5.35;;;;;;;;;;5075417;28;20031;-83
2022/03/15 07:23:21;;;;;;;10.23;5.38;;;;;;;;;;5082662;28;20036;-83
2022/03/15 07:25:46;;;;;;;8.75;4.70;;;;;;;;;;5072896;28;20049;-83
2022/03/15 07:28:12;;;;;;;11.35;4.82;;;;;;;;;;5092214;28;20031;-84
2022/03/15 07:30:37;;;;;;;12.00;6.40;;;;;;;;;;5091821;28;20048;-84
2022/03/15 07:33:02;;;;;;;9.65;4.85;;;;;;;;;;5075633;28;20016;-84
2022/03/15 07:35:28;;;;;;;9.50;4.45;;;;;;;;;;5092573;28;20023;-83
2022/03/15 07:37:58;;;;;;;10.98;5.03;;;;;;;;;;5085142;28;20050;-83
2022/03/15 07:40:25;;;;;;;12.73;5.25;;;;;;;;;;5074283;28;20044;-85
2022/03/15 07:42:51;;;;;;;15.70;6.13;;;;;;;;;;5081676;28;20032;-82
2022/03/15 07:45:16;;;;;;;11.68;5.20;;;;;;;;;;5158126;22;20048;-83
2022/03/15 07:47:42;;;;;;;12.25;5.28;;;;;;;;;;5051215;28;20025;-83
2022/03/15 07:50:07;;;;;;;9.05;4.50;;;;;;;;;;5054122;28;20016;-84
2022/03/15 07:52:33;;;;;;;11.07;4.93;;;;;;;;;;5052284;28;20040;-84
2022/03/15 07:54:58;;;;;;;9.77;5.00;;;;;;;;;;5062922;28;20025;-87
2022/03/15 07:57:23;;;;;;;11.18;5.00;;;;;;;;;;5053534;28;20021;-87
2022/03/15 07:59:49;;;;;;;9.65;5.43;;;;;;;;;;5037303;28;20025;-80
2022/03/15 08:02:15;;;;;;;10.60;5.05;;;;;;;;;;5046358;28;20101;-80
2022/03/15 08:04:40;;;;;;;14.95;6.15;;;;;;;;;;5033189;28;20133;-86
2022/03/15 08:07:05;;;;;;;13.15;5.70;;;;;;;;;;5055081;28;20044;-83
2022/03/15 08:09:31;;;;;;;10.68;5.78;;;;;;;;;;5045219;28;20028;-83
2022/03/15 08:11:56;;;;;;;10.40;5.57;;;;;;;;;;5045955;28;20092;-83
2022/03/15 08:14:21;;;;;;;12.88;6.07;;;;;;;;;;5038707;28;20033;-83
2022/03/15 08:16:46;;;;;;;14.52;6.93;;;;;;;;;;5043363;28;20017;-83
2022/03/15 08:19:12;;;;;;;19.27;5.95;;;;;;;;;;5045137;28;20017;-81
2022/03/15 08:21:37;;;;;;;10.30;5.57;;;;;;;;;;5032202;28;20075;-82
2022/03/15 08:24:02;;;;;;;16.98;6.53;;;;;;;;;;5050493;28;20035;-78
2022/03/15 08:26:28;;;;;;;11.30;6.10;;;;;;;;;;5043462;28;20067;-81
2022/03/15 08:28:53;;;;;;;15.68;6.65;;;;;;;;;;5044907;28;20506;-82
2022/03/15 08:31:18;;;;;;;12.68;6.00;;;;;;;;;;5043922;28;20032;-83
2022/03/15 08:33:44;;;;;;;15.13;5.88;;;;;;;;;;5046945;28;20033;-80
2022/03/15 08:36:10;;;;;;;14.05;6.00;;;;;;;;;;5039177;28;20024;-83
2022/03/15 08:38:35;;;;;;;16.58;7.72;;;;;;;;;;5050387;28;20104;-82
2022/03/15 08:41:01;;;;;;;18.60;7.47;;;;;;;;;;5049766;28;20052;-80
2022/03/15 08:43:26;;;;;;;11.77;5.38;;;;;;;;;;5045548;28;20040;-80
2022/03/15 08:45:52;;;;;;;11.95;6.90;;;;;;;;;;5039021;28;20114;-81
2022/03/15 08:48:17;;;;;;;13.10;6.18;;;;;;;;;;5039869;28;20596;-79
2022/03/15 08:50:43;;;;;;;12.63;6.35;;;;;;;;;;5040968;28;20110;-88
2022/03/15 08:53:08;;;;;;;16.38;6.88;;;;;;;;;;5050044;28;20074;-82
2022/03/15 08:55:35;;;;;;;12.43;5.75;;;;;;;;;;5035292;28;20025;-88
2022/03/15 08:58:00;;;;;;;10.38;5.13;;;;;;;;;;5045687;28;20120;-84
2022/03/15 09:00:25;;;;;;;15.07;6.70;;;;;;;;;;5032012;28;20112;-82
2022/03/15 09:02:50;;;;;;;10.13;5.78;;;;;;;;;;5044008;28;20053;-84
2022/03/15 09:05:19;;;;;;;20.85;7.25;;;;;;;;;;5049211;28;20013;-86
2022/03/15 09:07:51;;;;;;;15.82;5.80;;;;;;;;;;5035206;28;20460;-80
2022/03/15 09:10:18;;;;;;;16.38;6.22;;;;;;;;;;5046142;28;20034;-87
2022/03/15 09:12:43;;;;;;;13.05;5.22;;;;;;;;;;5045594;28;20044;-89
2022/03/15 09:15:08;;;;;;;10.00;5.65;;;;;;;;;;5042765;28;20018;-88
2022/03/15 09:17:34;;;;;;;14.07;5.20;;;;;;;;;;5048195;28;20028;-87
2022/03/15 09:19:59;;;;;;;12.43;5.13;;;;;;;;;;5037420;28;20025;-86
2022/03/15 09:22:24;;;;;;;8.45;4.70;;;;;;;;;;5042356;28;20029;-87
2022/03/15 09:24:49;;;;;;;10.52;4.93;;;;;;;;;;5043637;28;20248;-88
2022/03/15 09:27:14;;;;;;;13.18;5.18;;;;;;;;;;5049344;28;20014;-86
2022/03/15 09:29:40;;;;;;;13.07;6.05;;;;;;;;;;5050577;28;20013;-88
2022/03/15 09:32:07;;;;;;;8.93;5.78;;;;;;;;;;5042094;28;20057;-87
2022/03/15 09:34:33;;;;;;;9.82;5.57;;;;;;;;;;5046351;28;20033;-83
2022/03/15 09:36:59;;;;;;;10.88;5.55;;;;;;;;;;5046437;28;20408;-90
2022/03/15 09:39:25;;;;;;;12.20;5.60;;;;;;;;;;5043908;28;20095;-89
2022/03/15 09:41:50;;;;;;;11.10;5.55;;;;;;;;;;5044620;28;20594;-89
2022/03/15 09:44:16;;;;;;;12.40;5.75;;;;;;;;;;5047722;28;20031;-91
2022/03/15 09:46:43;;;;;;;14.18;5.70;;;;;;;;;;5048471;28;20032;-91
2022/03/15 09:49:08;;;;;;;17.48;5.70;;;;;;;;;;5041138;28;20017;-89
2022/03/15 09:51:34;;;;;;;11.10;4.75;;;;;;;;;;5043010;28;20080;-89
2022/03/15 09:54:02;;;;;;;15.75;6.85;;;;;;;;;;5049911;28;20025;-89
2022/03/15 09:56:28;;;;;;;12.90;4.43;;;;;;;;;;5038857;28;20029;-89
2022/03/15 09:58:53;;;;;;;8.77;4.70;;;;;;;;;;5047342;28;20032;-88
2022/03/15 10:01:18;;;;;;;9.63;5.20;;;;;;;;;;5044760;28;20021;-87
2022/03/15 10:03:44;;;;;;;11.27;4.75;;;;;;;;;;5047999;28;20278;-86
2022/03/15 10:06:09;;;;;;;13.52;5.35;;;;;;;;;;5057042;28;20083;-90
2022/03/15 10:08:37;;;;;;;10.10;4.40;;;;;;;;;;5059917;28;20021;-87
2022/03/15 10:11:02;;;;;;;9.68;4.82;;;;;;;;;;5062644;28;20286;-87
2022/03/15 10:13:28;;;;;;;8.23;4.72;;;;;;;;;;5056399;28;20021;-88
2022/03/15 10:15:54;;;;;;;6.78;4.15;;;;;;;;;;5061167;28;20009;-82
2022/03/15 10:18:19;;;;;;;10.85;4.60;;;;;;;;;;5061306;28;20017;-87
2022/03/15 10:20:45;;;;;;;9.35;4.95;;;;;;;;;;5063458;28;20032;-85
2022/03/15 10:23:10;;;;;;;9.70;4.75;;;;;;;;;;5056940;28;20021;-82
2022/03/15 10:25:37;;;;;;;9.07;4.35;;;;;;;;;;5060792;28;20021;-85
2022/03/15 10:28:03;;;;;;;11.65;4.72;;;;;;;;;;5079026;28;20021;-84
2022/03/15 10:30:29;;;;;;;10.00;4.70;;;;;;;;;;5062701;28;20405;-89
2022/03/15 10:32:55;;;;;;;10.80;3.97;;;;;;;;;;5055508;28;20029;-87
2022/03/15 10:35:21;;;;;;;10.40;4.97;;;;;;;;;;5054713;28;20025;-84
2022/03/15 10:37:47;;;;;;;9.20;4.20;;;;;;;;;;5060978;28;20025;-85
2022/03/15 10:40:13;;;;;;;7.85;3.65;;;;;;;;;;5055161;28;20021;-85
2022/03/15 10:42:41;;;;;;;8.93;3.90;;;;;;;;;;5059659;28;20029;-87
2022/03/15 10:45:19;;;;;;;13.90;5.18;;;;;;;;;;5057205;28;20101;-86
2022/03/15 10:47:48;;;;;;;9.18;4.30;;;;;;;;;;5048830;28;20037;-85
2022/03/15 10:50:16;;;;;;;6.35;3.53;;;;;;;;;;5048212;28;20052;-87
2022/03/15 10:52:44;;;;;;;9.48;4.18;;;;;;;;;;5054910;28;20039;-84
2022/03/15 10:55:09;;;;;;;10.52;5.13;;;;;;;;;;5051921;28;20033;-85
2022/03/15 10:57:44;;;;;;;13.43;3.67;;;;;;;;;;5045433;28;20021;-87
2022/03/15 11:00:10;;;;;;;12.85;4.22;;;;;;;;;;5066323;28;20108;-85
2022/03/15 11:02:35;;;;;;;10.15;4.40;;;;;;;;;;5045687;28;20467;-86
2022/03/15 11:05:00;;;;;;;8.93;4.00;;;;;;;;;;5040926;28;20101;-87
2022/03/15 11:07:35;;;;;;;14.48;4.32;;;;;;;;;;5043223;28;20099;-87
2022/03/15 11:10:07;;;;;;;9.50;4.35;;;;;;;;;;5050576;28;20484;-87
2022/03/15 11:12:33;;;;;;;11.85;4.90;;;;;;;;;;5044047;28;20373;-87
2022/03/15 11:15:00;;;;;;;13.77;4.32;;;;;;;;;;5047135;28;20024;-87
2022/03/15 11:17:26;;;;;;;11.57;5.15;;;;;;;;;;5038787;28;20101;-88
2022/03/15 11:19:51;;;;;;;10.55;5.20;;;;;;;;;;5042325;28;20152;-87
2022/03/15 11:22:17;;;;;;;10.55;4.10;;;;;;;;;;5040801;28;20384;-88
2022/03/15 11:25:03;;;;;;;8.65;4.38;;;;;;;;;;5051664;28;20060;-87
2022/03/15 11:27:32;;;;;;;7.13;3.67;;;;;;;;;;5037000;28;20033;-86
2022/03/15 11:30:01;;;;;;;9.02;4.07;;;;;;;;;;5037596;28;20037;-88
2022/03/15 11:32:26;;;;;;;11.00;4.43;;;;;;;;;;5037023;28;20026;-86
2022/03/15 11:34:51;;;;;;;10.40;4.88;;;;;;;;;;5040797;28;20484;-86
2022/03/15 11:37:17;;;;;;;10.88;4.47;;;;;;;;;;5039247;28;20387;-87
2022/03/15 11:39:42;;;;;;;8.50;4.00;;;;;;;;;;5043189;28;20472;-86
2022/03/15 11:42:09;;;;;;;8.75;3.67;;;;;;;;;;5038851;28;20098;-88
2022/03/15 11:44:53;;;;;;;6.20;3.63;;;;;;;;;;5050085;28;20031;-88
2022/03/15 11:47:32;;;;;;;5.68;2.95;;;;;;;;;;5036600;28;20025;-87
2022/03/15 11:50:06;;;;;;;11.10;3.55;;;;;;;;;;5043493;28;20435;-88
2022/03/15 11:52:34;;;;;;;10.55;4.18;;;;;;;;;;5037027;28;20018;-87
2022/03/15 11:55:07;;;;;;;9.93;3.75;;;;;;;;;;5036476;28;20017;-88
2022/03/15 11:57:40;;;;;;;10.23;3.45;;;;;;;;;;5045396;28;20018;-87
2022/03/15 12:00:06;;;;;;;7.20;3.60;;;;;;;;;;5039295;28;20056;-86
2022/03/15 12:02:38;;;;;;;8.00;4.90;;;;;;;;;;5041048;28;20043;-87
2022/03/15 12:05:17;;;;;;;5.95;3.40;;;;;;;;;;5056118;28;20048;-87
2022/03/15 12:07:47;;;;;;;8.30;4.05;;;;;;;;;;5036004;28;20021;-88
2022/03/15 12:10:27;;;;;;;8.13;3.80;;;;;;;;;;5055703;28;20037;-88
2022/03/15 12:13:03;;;;;;;8.13;3.33;;;;;;;;;;5042657;28;20025;-90
2022/03/15 12:15:36;;;;;;;8.40;4.00;;;;;;;;;;5040571;28;20017;-89
2022/03/15 12:18:14;;;;;;;11.07;4.10;;;;;;;;;;5037641;28;20049;-88
2022/03/15 12:20:44;;;;;;;7.80;3.40;;;;;;;;;;5048002;28;20041;-88
2022/03/15 12:23:17;;;;;;;8.23;3.67;;;;;;;;;;5042756;28;20016;-86
2022/03/15 12:25:51;;;;;;;8.48;3.63;;;;;;;;;;5040012;28;20498;-91
2022/03/15 12:28:25;;;;;;;7.78;3.63;;;;;;;;;;5044166;28;20025;-87
2022/03/15 12:30:52;;;;;;;10.57;3.58;;;;;;;;;;5049104;28;20027;-88
2022/03/15 12:33:24;;;;;;;11.48;4.07;;;;;;;;;;5043807;28;20492;-87
2022/03/15 12:35:57;;;;;;;8.75;3.65;;;;;;;;;;5047015;28;20021;-88
2022/03/15 12:38:51;;;;;;;18.73;5.68;;;;;;;;;;5039917;28;20468;-89
2022/03/15 12:41:24;;;;;;;9.90;4.25;;;;;;;;;;5035202;28;20082;-88
2022/03/15 12:43:52;;;;;;;8.65;3.35;;;;;;;;;;5034226;28;20082;-87
2022/03/15 12:46:18;;;;;;;9.85;4.00;;;;;;;;;;5046472;28;20476;-86
2022/03/15 12:48:43;;;;;;;8.07;3.97;;;;;;;;;;5042573;28;20287;-86
2022/03/15 12:51:18;;;;;;;7.95;3.92;;;;;;;;;;5039171;28;20056;-84
2022/03/15 12:53:47;;;;;;;9.88;4.60;;;;;;;;;;5044123;28;20514;-85
2022/03/15 12:56:14;;;;;;;13.02;4.55;;;;;;;;;;5017931;28;20061;-83
2022/03/15 12:58:40;;;;;;;10.88;5.28;;;;;;;;;;5043810;28;20440;-85
2022/03/15 13:01:08;;;;;;;9.75;4.50;;;;;;;;;;5044661;28;20029;-83
2022/03/15 13:03:35;;;;;;;10.23;4.57;;;;;;;;;;5034447;28;20091;-84
2022/03/15 13:06:00;;;;;;;7.88;4.05;;;;;;;;;;5034089;28;20465;-86
2022/03/15 13:08:25;;;;;;;7.38;3.88;;;;;;;;;;5033099;28;20018;-84
2022/03/15 13:10:52;;;;;;;7.32;3.58;;;;;;;;;;5044076;28;20392;-81
2022/03/15 13:13:50;;;;;;;11.10;4.63;;;;;;;;;;5037181;28;20021;-81
2022/03/15 13:16:09;;;;;;;8.32;4.07;;;;;;;;;;5043254;28;20128;-80
2022/03/15 13:18:34;;;;;;;9.07;4.55;;;;;;;;;;5040086;28;20057;-82
2022/03/15 13:21:09;;;;;;;10.75;4.82;;;;;;;;;;5035908;28;20041;-81
2022/03/15 13:23:38;;;;;;;11.80;4.63;;;;;;;;;;5041035;28;20014;-79
2022/03/15 13:26:07;;;;;;;7.90;3.90;;;;;;;;;;5039581;28;20018;-79
2022/03/15 13:28:34;;;;;;;14.07;4.75;;;;;;;;;;5041576;28;20052;-82
2022/03/15 13:31:04;;;;;;;13.00;6.13;;;;;;;;;;5044398;28;20017;-84
2022/03/15 13:33:34;;;;;;;8.07;4.75;;;;;;;;;;5035920;28;20037;-85
2022/03/15 13:36:01;;;;;;;10.88;6.03;;;;;;;;;;5041253;28;20079;-83
2022/03/15 13:38:28;;;;;;;10.25;5.55;;;;;;;;;;5036341;28;20021;-83
2022/03/15 13:40:54;;;;;;;11.90;5.40;;;;;;;;;;5031015;28;20022;-86
2022/03/15 13:43:19;;;;;;;11.48;5.22;;;;;;;;;;5032451;28;20542;-87
2022/03/15 13:45:46;;;;;;;8.80;4.90;;;;;;;;;;5045484;28;20025;-87
2022/03/15 13:48:12;;;;;;;8.70;4.53;;;;;;;;;;5036052;28;20075;-86
2022/03/15 13:50:38;;;;;;;11.90;5.40;;;;;;;;;;5038306;28;20044;-85
2022/03/15 13:53:15;;;;;;;18.00;6.00;;;;;;;;;;5029328;28;20033;-85
2022/03/15 13:55:41;;;;;;;9.95;5.20;;;;;;;;;;5045504;28;20021;-86
2022/03/15 13:58:06;;;;;;;14.55;6.32;;;;;;;;;;5037011;28;20013;-86
2022/03/15 14:00:31;;;;;;;13.50;5.25;;;;;;;;;;5049038;28;20044;-87
2022/03/15 14:03:05;;;;;;;10.05;5.40;;;;;;;;;;5043717;28;20017;-85
2022/03/15 14:05:31;;;;;;;15.85;5.75;;;;;;;;;;5046131;28;20031;-85
2022/03/15 14:08:01;;;;;;;10.73;5.65;;;;;;;;;;5036875;28;20018;-85
2022/03/15 14:10:27;;;;;;;13.00;5.90;;;;;;;;;;5035919;28;20014;-86
2022/03/15 14:12:55;;;;;;;14.90;6.65;;;;;;;;;;5042573;28;20504;-87
2022/03/15 14:15:22;;;;;;;11.77;5.72;;;;;;;;;;5053721;28;20024;-86
2022/03/15 14:17:50;;;;;;;14.32;6.18;;;;;;;;;;5037927;28;20014;-88
2022/03/15 14:20:27;;;;;;;9.23;5.55;;;;;;;;;;5047060;28;20017;-87
2022/03/15 14:22:53;;;;;;;13.13;5.80;;;;;;;;;;5040812;28;20495;-86
2022/03/15 14:25:26;;;;;;;9.93;5.47;;;;;;;;;;5041772;28;20025;-86
2022/03/15 14:27:56;;;;;;;14.95;5.50;;;;;;;;;;5048871;28;20359;-84
2022/03/15 14:30:22;;;;;;;13.57;5.80;;;;;;;;;;5036990;28;20035;-86